createdAt,value
2023-11-01T00:00:53.915Z,100618.25
2023-11-01T00:03:21.545Z,100626.19
2023-11-01T00:05:50.370Z,100622.31
2023-11-01T00:08:18.117Z,100611.97
2023-11-01T00:10:45.813Z,100616.78
2023-11-01T00:13:13.429Z,100604.47
2023-11-01T00:15:41.266Z,100607.03
2023-11-01T00:18:08.899Z,100601.59
2023-11-01T00:20:36.427Z,100599.19
2023-11-01T00:23:04.103Z,100590.38
2023-11-01T00:25:31.661Z,100596.44
2023-11-01T00:27:59.253Z,100593.41
2023-11-01T00:30:27.394Z,100594.97
2023-11-01T00:32:56.656Z,100584.47
2023-11-01T00:35:24.508Z,100582.56
2023-11-01T00:37:52.256Z,100574.38
2023-11-01T00:40:19.894Z,100567.25
2023-11-01T00:42:47.511Z,100582.06
2023-11-01T00:45:15.484Z,100583.19
2023-11-01T00:47:43.376Z,100584.63
2023-11-01T00:50:11.169Z,100591.13
2023-11-01T00:52:38.905Z,100581.47
2023-11-01T00:55:06.788Z,100585.00
2023-11-01T00:57:34.824Z,100588.94
2023-11-01T01:00:02.773Z,100584.59
2023-11-01T01:02:30.611Z,100583.16
2023-11-01T01:04:58.215Z,100574.69
2023-11-01T01:07:25.871Z,100569.75
2023-11-01T01:09:53.577Z,100573.38
2023-11-01T01:12:21.090Z,100577.22
2023-11-01T01:14:48.677Z,100567.94
2023-11-01T01:17:16.323Z,100574.38
2023-11-01T01:19:43.902Z,100568.09
2023-11-01T01:22:11.471Z,100580.97
2023-11-01T01:24:39.023Z,100580.81
2023-11-01T01:27:07.331Z,100584.91
2023-11-01T01:29:34.924Z,100570.94
2023-11-01T01:32:02.666Z,100579.16
2023-11-01T01:34:30.357Z,100571.94
2023-11-01T01:36:58.074Z,100565.28
2023-11-01T01:39:25.641Z,100567.25
2023-11-01T01:41:53.217Z,100565.88
2023-11-01T01:44:20.848Z,100570.81
2023-11-01T01:46:48.693Z,100558.66
2023-11-01T01:49:16.193Z,100566.34
2023-11-01T01:51:43.892Z,100552.75
2023-11-01T01:54:11.707Z,100548.38
2023-11-01T01:56:39.490Z,100539.81
2023-11-01T01:59:07.745Z,100536.97
2023-11-01T02:01:42.741Z,100532.00
2023-11-01T02:04:15.893Z,100535.13
2023-11-01T02:06:45.194Z,100521.41
2023-11-01T02:09:18.865Z,100528.13
2023-11-01T02:11:46.897Z,100527.53
2023-11-01T02:14:15.033Z,100518.38
2023-11-01T02:16:42.708Z,100511.84
2023-11-01T02:19:14.176Z,100515.00
2023-11-01T02:21:41.814Z,100516.81
2023-11-01T02:24:09.513Z,100507.06
2023-11-01T02:26:37.219Z,100512.38
2023-11-01T02:29:06.374Z,100506.56
2023-11-01T02:31:34.475Z,100509.56
2023-11-01T02:34:02.052Z,100507.91
2023-11-01T02:36:29.639Z,100509.94
2023-11-01T02:38:57.263Z,100504.66
2023-11-01T02:41:24.906Z,100501.03
2023-11-01T02:43:52.562Z,100501.03
2023-11-01T02:46:20.127Z,100503.28
2023-11-01T02:48:47.902Z,100501.50
2023-11-01T02:51:15.476Z,100492.56
2023-11-01T02:53:43.120Z,100491.84
2023-11-01T02:56:10.791Z,100490.91
2023-11-01T02:58:38.423Z,100479.31
2023-11-01T03:01:08.360Z,100485.84
2023-11-01T03:03:35.976Z,100483.19
2023-11-01T03:06:04.472Z,100476.91
2023-11-01T03:08:32.248Z,100478.34
2023-11-01T03:10:59.905Z,100475.69
2023-11-01T03:13:27.500Z,100460.59
2023-11-01T03:15:55.072Z,100451.56
2023-11-01T03:18:22.698Z,100462.41
2023-11-01T03:20:50.401Z,100459.53
2023-11-01T03:23:18.032Z,100458.78
2023-11-01T03:25:45.582Z,100449.75
2023-11-01T03:28:13.235Z,100453.69
2023-11-01T03:30:40.859Z,100451.75
2023-11-01T03:33:08.694Z,100454.81
2023-11-01T03:35:36.357Z,100447.34
2023-11-01T03:38:03.906Z,100452.25
2023-11-01T03:40:31.463Z,100450.72
2023-11-01T03:42:59.016Z,100445.41
2023-11-01T03:45:26.574Z,100448.75
2023-11-01T03:47:54.177Z,100457.06
2023-11-01T03:50:22.300Z,100452.00
2023-11-01T03:52:49.983Z,100456.72
2023-11-01T03:55:17.683Z,100454.91
2023-11-01T03:57:45.285Z,100458.28
2023-11-01T04:00:22.849Z,100453.00
2023-11-01T04:02:51.822Z,100455.38
2023-11-01T04:05:19.837Z,100456.81
2023-11-01T04:07:47.614Z,100446.91
2023-11-01T04:10:15.319Z,100444.25
2023-11-01T04:12:43.058Z,100441.97
2023-11-01T04:15:14.324Z,100439.91
2023-11-01T04:17:42.111Z,100441.88
2023-11-01T04:20:10.533Z,100447.66
2023-11-01T04:22:39.442Z,100443.34
2023-11-01T04:25:11.129Z,100438.22
2023-11-01T04:27:41.317Z,100442.28
2023-11-01T04:30:10.555Z,100441.72
2023-11-01T04:32:38.174Z,100432.91
2023-11-01T04:35:10.689Z,100425.06
2023-11-01T04:37:38.742Z,100426.47
2023-11-01T04:40:13.585Z,100413.09
2023-11-01T04:42:42.750Z,100414.91
2023-11-01T04:45:12.657Z,100418.16
2023-11-01T04:47:42.783Z,100414.13
2023-11-01T04:50:11.688Z,100413.28
2023-11-01T04:52:40.558Z,100407.25
2023-11-01T04:55:09.653Z,100411.34
2023-11-01T04:57:37.858Z,100409.91
2023-11-01T05:00:18.082Z,100402.94
2023-11-01T05:02:49.678Z,100410.03
2023-11-01T05:05:18.570Z,100408.81
2023-11-01T05:07:46.331Z,100402.53
2023-11-01T05:10:13.965Z,100395.72
2023-11-01T05:12:41.536Z,100393.78
2023-11-01T05:15:10.225Z,100386.53
2023-11-01T05:17:37.835Z,100384.25
2023-11-01T05:20:05.921Z,100385.56
2023-11-01T05:22:33.425Z,100386.16
2023-11-01T05:25:00.947Z,100384.44
2023-11-01T05:27:28.891Z,100377.19
2023-11-01T05:29:56.420Z,100378.88
2023-11-01T05:32:23.995Z,100384.03
2023-11-01T05:34:51.563Z,100382.94
2023-11-01T05:37:19.281Z,100375.81
2023-11-01T05:39:46.921Z,100372.97
2023-11-01T05:42:14.506Z,100377.78
2023-11-01T05:44:42.850Z,100369.66
2023-11-01T05:47:10.396Z,100376.78
2023-11-01T05:49:37.977Z,100376.38
2023-11-01T05:52:05.720Z,100377.19
2023-11-01T05:54:33.249Z,100370.91
2023-11-01T05:57:03.157Z,100374.28
2023-11-01T05:59:30.852Z,100372.97
2023-11-01T06:01:58.472Z,100372.06
2023-11-01T06:04:26.155Z,100368.56
2023-11-01T06:06:53.670Z,100364.94
2023-11-01T06:09:21.227Z,100368.41
2023-11-01T06:11:48.838Z,100371.34
2023-11-01T06:14:16.518Z,100364.34
2023-11-01T06:16:44.372Z,100360.72
2023-11-01T06:19:13.148Z,100361.19
2023-11-01T06:21:40.850Z,100363.69
2023-11-01T06:24:08.970Z,100366.59
2023-11-01T06:26:37.122Z,100358.25
2023-11-01T06:29:04.811Z,100356.81
2023-11-01T06:31:32.426Z,100359.66
2023-11-01T06:34:00.707Z,100357.00
2023-11-01T06:36:28.878Z,100360.34
2023-11-01T06:38:56.585Z,100356.88
2023-11-01T06:41:26.356Z,100355.75
2023-11-01T06:43:55.211Z,100358.53
2023-11-01T06:46:23.739Z,100358.13
2023-11-01T06:48:51.372Z,100363.41
2023-11-01T06:51:19.076Z,100352.81
2023-11-01T06:53:47.820Z,100353.28
2023-11-01T06:56:15.507Z,100359.00
2023-11-01T06:58:44.454Z,100359.00
2023-11-01T07:01:12.449Z,100351.88
2023-11-01T07:03:40.173Z,100359.44
2023-11-01T07:06:09.181Z,100354.84
2023-11-01T07:08:39.138Z,100355.94
2023-11-01T07:11:06.808Z,100358.47
2023-11-01T07:13:34.372Z,100354.69
2023-11-01T07:16:02.031Z,100350.50
2023-11-01T07:18:29.991Z,100353.59
2023-11-01T07:20:57.648Z,100354.00
2023-11-01T07:23:25.859Z,100343.81
2023-11-01T07:25:53.479Z,100340.19
2023-11-01T07:28:20.997Z,100341.16
2023-11-01T07:30:48.595Z,100332.63
2023-11-01T07:33:16.281Z,100327.59
2023-11-01T07:35:44.031Z,100332.06
2023-11-01T07:38:11.689Z,100327.03
2023-11-01T07:40:39.285Z,100325.34
2023-11-01T07:43:06.820Z,100323.94
2023-11-01T07:45:34.410Z,100307.31
2023-11-01T07:48:02.204Z,100319.88
2023-11-01T07:50:30.630Z,100318.78
2023-11-01T07:52:58.323Z,100319.63
2023-11-01T07:55:25.874Z,100330.09
2023-11-01T07:57:53.513Z,100325.91
2023-11-01T08:00:21.294Z,100323.41
2023-11-01T08:02:49.084Z,100322.84
2023-11-01T08:05:16.790Z,100327.91
2023-11-01T08:07:44.419Z,100320.63
2023-11-01T08:10:12.487Z,100309.56
2023-11-01T08:12:40.424Z,100318.78
2023-11-01T08:15:08.678Z,100310.97
2023-11-01T08:17:36.336Z,100310.28
2023-11-01T08:20:05.201Z,100301.59
2023-11-01T08:22:32.781Z,100294.59
2023-11-01T08:25:00.449Z,100304.09
2023-11-01T08:27:28.072Z,100299.91
2023-11-01T08:29:55.682Z,100291.66
2023-11-01T08:32:23.348Z,100295.16
2023-11-01T08:34:51.337Z,100283.41
2023-11-01T08:37:18.938Z,100289.84
2023-11-01T08:39:46.553Z,100289.41
2023-11-01T08:42:14.108Z,100288.56
2023-11-01T08:44:41.744Z,100281.59
2023-11-01T08:47:10.719Z,100283.97
2023-11-01T08:49:39.625Z,100281.59
2023-11-01T08:52:07.266Z,100283.69
2023-11-01T08:54:34.942Z,100284.66
2023-11-01T08:57:02.807Z,100281.03
2023-11-01T08:59:30.533Z,100274.56
2023-11-01T09:02:07.520Z,100274.72
2023-11-01T09:04:41.166Z,100273.88
2023-11-01T09:07:09.819Z,100268.56
2023-11-01T09:09:38.122Z,100275.00
2023-11-01T09:12:06.278Z,100269.69
2023-11-01T09:14:33.874Z,100263.25
2023-11-01T09:17:04.489Z,100259.31
2023-11-01T09:19:32.045Z,100266.34
2023-11-01T09:21:59.630Z,100262.41
2023-11-01T09:24:27.208Z,100258.91
2023-11-01T09:26:54.985Z,100256.94
2023-11-01T09:29:22.760Z,100257.78
2023-11-01T09:31:50.459Z,100258.31
2023-11-01T09:34:18.130Z,100255.69
2023-11-01T09:36:45.781Z,100250.50
2023-11-01T09:39:13.353Z,100250.06
2023-11-01T09:41:49.843Z,100252.16
2023-11-01T09:44:19.965Z,100245.75
2023-11-01T09:46:51.457Z,100256.09
2023-11-01T09:49:19.180Z,100249.25
2023-11-01T09:51:46.927Z,100246.00
2023-11-01T09:54:15.018Z,100246.00
2023-11-01T09:56:43.835Z,100239.44
2023-11-01T09:59:12.576Z,100244.19
2023-11-01T10:01:40.939Z,100234.94
2023-11-01T10:04:09.669Z,100239.59
2023-11-01T10:06:38.138Z,100240.25
2023-11-01T10:09:06.653Z,100235.81
2023-11-01T10:11:34.372Z,100236.91
2023-11-01T10:14:02.123Z,100231.28
2023-11-01T10:16:31.758Z,100225.28
2023-11-01T10:19:00.685Z,100223.63
2023-11-01T10:21:30.939Z,100221.38
2023-11-01T10:23:59.809Z,100222.91
2023-11-01T10:26:31.818Z,100216.91
2023-11-01T10:29:01.193Z,100221.13
2023-11-01T10:31:29.376Z,100215.50
2023-11-01T10:33:57.196Z,100211.06
2023-11-01T10:36:24.921Z,100214.13
2023-11-01T10:38:53.511Z,100205.28
2023-11-01T10:41:21.983Z,100205.41
2023-11-01T10:43:49.730Z,100212.56
2023-11-01T10:46:18.220Z,100198.31
2023-11-01T10:48:47.491Z,100199.09
2023-11-01T10:51:15.541Z,100194.22
2023-11-01T10:53:43.906Z,100183.13
2023-11-01T10:56:11.534Z,100188.72
2023-11-01T10:58:43.748Z,100191.25
2023-11-01T11:01:25.741Z,100178.50
2023-11-01T11:04:06.310Z,100185.69
2023-11-01T11:06:41.007Z,100175.88
2023-11-01T11:09:29.177Z,100172.47
2023-11-01T11:12:22.050Z,100177.41
2023-11-01T11:14:51.524Z,100175.03
2023-11-01T11:17:20.999Z,100181.91
2023-11-01T11:20:18.122Z,100169.50
2023-11-01T11:23:04.283Z,100173.28
2023-11-01T11:25:47.102Z,100169.94
2023-11-01T11:28:23.755Z,100170.19
2023-11-01T11:31:17.292Z,100165.50
2023-11-01T11:33:48.451Z,100164.00
2023-11-01T11:36:19.247Z,100160.59
2023-11-01T11:38:56.864Z,100154.94
2023-11-01T11:41:30.001Z,100149.50
2023-11-01T11:44:06.665Z,100149.63
2023-11-01T11:46:41.949Z,100150.03
2023-11-01T11:49:27.975Z,100143.72
2023-11-01T11:52:01.195Z,100136.66
2023-11-01T11:54:31.960Z,100140.13
2023-11-01T11:57:09.365Z,100135.06
2023-11-01T11:59:38.704Z,100138.72
2023-11-01T12:02:08.105Z,100135.88
2023-11-01T12:04:38.499Z,100129.28
2023-11-01T12:07:08.653Z,100129.56
2023-11-01T12:09:36.350Z,100121.75
2023-11-01T12:12:12.979Z,100120.00
2023-11-01T12:14:43.956Z,100108.28
2023-11-01T12:17:12.037Z,100109.50
2023-11-01T12:19:48.837Z,100106.44
2023-11-01T12:22:18.193Z,100102.41
2023-11-01T12:24:46.532Z,100102.34
2023-11-01T12:27:23.098Z,100097.75
2023-11-01T12:29:52.814Z,100087.25
2023-11-01T12:32:23.150Z,100087.41
2023-11-01T12:34:50.747Z,100076.31
2023-11-01T12:37:24.507Z,100086.38
2023-11-01T12:40:12.305Z,100085.56
2023-11-01T12:42:47.686Z,100084.09
2023-11-01T12:45:16.921Z,100084.28
2023-11-01T12:47:44.827Z,100079.75
2023-11-01T12:50:21.060Z,100077.81
2023-11-01T12:52:50.219Z,100072.97
2023-11-01T12:55:18.814Z,100067.91
2023-11-01T12:57:49.052Z,100064.19
2023-11-01T13:00:18.791Z,100061.50
2023-11-01T13:02:46.815Z,100056.19
2023-11-01T13:05:14.533Z,100048.66
2023-11-01T13:07:42.552Z,100050.31
2023-11-01T13:10:12.579Z,100047.00
2023-11-01T13:12:41.448Z,100045.84
2023-11-01T13:15:12.738Z,100038.53
2023-11-01T13:17:40.476Z,100031.72
2023-11-01T13:20:08.739Z,100038.06
2023-11-01T13:22:36.994Z,100026.25
2023-11-01T13:25:05.121Z,100036.97
2023-11-01T13:27:32.742Z,100037.78
2023-11-01T13:30:00.512Z,100034.44
2023-11-01T13:32:28.333Z,100034.59
2023-11-01T13:34:56.088Z,100017.28
2023-11-01T13:37:23.662Z,100021.47
2023-11-01T13:39:51.409Z,100012.13
2023-11-01T13:42:19.302Z,100014.63
2023-11-01T13:44:46.934Z,100003.44
2023-11-01T13:47:14.657Z,100001.81
2023-11-01T13:49:43.211Z,100002.66
2023-11-01T13:52:13.052Z,99999.88
2023-11-01T13:54:40.990Z,99999.38
2023-11-01T13:57:09.003Z,99999.19
2023-11-01T13:59:37.947Z,99996.53
2023-11-01T14:02:05.731Z,99997.84
2023-11-01T14:04:34.442Z,99996.00
2023-11-01T14:07:02.248Z,99986.13
2023-11-01T14:09:31.225Z,99986.31
2023-11-01T14:11:59.083Z,99971.63
2023-11-01T14:14:27.731Z,99971.13
2023-11-01T14:16:55.451Z,99966.63
2023-11-01T14:19:23.056Z,99963.94
2023-11-01T14:21:50.681Z,99970.28
2023-11-01T14:24:19.928Z,99963.59
2023-11-01T14:26:48.053Z,99961.91
2023-11-01T14:29:15.918Z,99961.94
2023-11-01T14:31:43.677Z,99961.84
2023-11-01T14:34:11.421Z,99959.69
2023-11-01T14:36:39.344Z,99946.50
2023-11-01T14:39:06.970Z,99942.97
2023-11-01T14:41:34.657Z,99942.31
2023-11-01T14:44:04.302Z,99939.47
2023-11-01T14:46:32.242Z,99945.59
2023-11-01T14:48:59.981Z,99938.59
2023-11-01T14:51:27.943Z,99933.78
2023-11-01T14:53:55.588Z,99939.97
2023-11-01T14:56:23.312Z,99934.63
2023-11-01T14:58:52.150Z,99937.59
2023-11-01T15:01:19.961Z,99931.78
2023-11-01T15:03:48.002Z,99918.31
2023-11-01T15:06:15.788Z,99930.63
2023-11-01T15:08:43.457Z,99920.09
2023-11-01T15:11:11.959Z,99916.28
2023-11-01T15:13:39.667Z,99916.97
2023-11-01T15:16:08.123Z,99907.28
2023-11-01T15:18:35.976Z,99919.13
2023-11-01T15:21:04.490Z,99915.63
2023-11-01T15:23:33.680Z,99910.44
2023-11-01T15:26:01.966Z,99913.41
2023-11-01T15:28:29.945Z,99899.13
2023-11-01T15:30:57.782Z,99898.91
2023-11-01T15:33:26.278Z,99889.78
2023-11-01T15:35:54.940Z,99897.09
2023-11-01T15:38:22.555Z,99893.72
2023-11-01T15:40:50.634Z,99894.59
2023-11-01T15:43:18.319Z,99888.06
2023-11-01T15:45:45.957Z,99887.22
2023-11-01T15:48:14.017Z,99879.94
2023-11-01T15:50:43.226Z,99886.91
2023-11-01T15:53:11.121Z,99889.34
2023-11-01T15:55:38.917Z,99887.91
2023-11-01T15:58:07.021Z,99895.06
2023-11-01T16:00:34.810Z,99890.25
2023-11-01T16:03:02.588Z,99886.22
2023-11-01T16:05:30.357Z,99875.75
2023-11-01T16:07:58.029Z,99880.69
2023-11-01T16:10:25.866Z,99880.38
2023-11-01T16:12:53.577Z,99881.22
2023-11-01T16:15:21.309Z,99877.84
2023-11-01T16:17:50.173Z,99863.53
2023-11-01T16:20:18.483Z,99861.88
2023-11-01T16:22:46.455Z,99862.88
2023-11-01T16:25:14.529Z,99849.38
2023-11-01T16:27:42.109Z,99845.88
2023-11-01T16:30:10.351Z,99844.06
2023-11-01T16:32:38.216Z,99860.66
2023-11-01T16:35:07.214Z,99863.50
2023-11-01T16:37:35.169Z,99856.34
2023-11-01T16:40:06.801Z,99868.81
2023-11-01T16:42:34.595Z,99863.81
2023-11-01T16:45:02.302Z,99871.19
2023-11-01T16:47:30.922Z,99866.38
2023-11-01T16:49:58.703Z,99869.53
2023-11-01T16:52:26.354Z,99864.81
2023-11-01T16:54:54.030Z,99868.81
2023-11-01T16:57:21.622Z,99862.16
2023-11-01T16:59:49.408Z,99860.31
2023-11-01T17:02:17.139Z,99853.34
2023-11-01T17:04:44.955Z,99861.31
2023-11-01T17:07:12.759Z,99861.31
2023-11-01T17:09:40.491Z,99854.34
2023-11-01T17:12:08.565Z,99856.13
2023-11-01T17:14:36.439Z,99850.63
2023-11-01T17:17:04.360Z,99850.50
2023-11-01T17:19:32.312Z,99850.34
2023-11-01T17:22:00.367Z,99851.31
2023-11-01T17:24:27.963Z,99853.97
2023-11-01T17:26:59.018Z,99850.97
2023-11-01T17:29:32.615Z,99846.34
2023-11-01T17:32:00.514Z,99849.13
2023-11-01T17:34:32.643Z,99838.19
2023-11-01T17:37:02.548Z,99847.84
2023-11-01T17:39:39.500Z,99840.84
2023-11-01T17:42:11.166Z,99845.97
2023-11-01T17:44:40.627Z,99841.47
2023-11-01T17:47:10.590Z,99845.66
2023-11-01T17:49:48.804Z,99842.00
2023-11-01T17:52:25.463Z,99840.94
2023-11-01T17:54:53.562Z,99833.66
2023-11-01T17:57:22.318Z,99844.78
2023-11-01T17:59:50.055Z,99833.75
2023-11-01T18:02:32.864Z,99837.63
2023-11-01T18:05:01.909Z,99839.56
2023-11-01T18:07:29.825Z,99831.75
2023-11-01T18:09:58.707Z,99823.09
2023-11-01T18:12:30.611Z,99832.97
2023-11-01T18:14:58.473Z,99828.94
2023-11-01T18:17:33.159Z,99827.59
2023-11-01T18:20:05.084Z,99836.13
2023-11-01T18:22:42.779Z,99815.81
2023-11-01T18:25:33.794Z,99818.00
2023-11-01T18:28:02.961Z,99808.31
2023-11-01T18:30:30.964Z,99804.16
2023-11-01T18:33:03.152Z,99803.00
2023-11-01T18:35:36.986Z,99799.66
2023-11-01T18:38:04.550Z,99795.91
2023-11-01T18:40:32.613Z,99790.09
2023-11-01T18:43:01.562Z,99796.84
2023-11-01T18:45:32.002Z,99779.34
2023-11-01T18:48:02.374Z,99796.34
2023-11-01T18:50:30.427Z,99792.53
2023-11-01T18:53:04.833Z,99777.56
2023-11-01T18:55:36.685Z,99772.06
2023-11-01T18:58:04.719Z,99778.53
2023-11-01T19:00:32.571Z,99771.53
2023-11-01T19:03:05.346Z,99776.56
2023-11-01T19:05:34.537Z,99771.22
2023-11-01T19:08:02.638Z,99771.84
2023-11-01T19:10:33.711Z,99777.00
2023-11-01T19:13:02.363Z,99768.19
2023-11-01T19:15:36.273Z,99778.00
2023-11-01T19:18:09.271Z,99774.66
2023-11-01T19:20:39.282Z,99772.16
2023-11-01T19:23:07.100Z,99772.16
2023-11-01T19:25:34.754Z,99758.34
2023-11-01T19:28:03.462Z,99753.69
2023-11-01T19:30:31.226Z,99753.03
2023-11-01T19:32:59.157Z,99755.84
2023-11-01T19:35:26.890Z,99754.84
2023-11-01T19:37:54.897Z,99745.69
2023-11-01T19:40:25.042Z,99759.50
2023-11-01T19:42:52.839Z,99746.53
2023-11-01T19:45:20.827Z,99738.16
2023-11-01T19:47:48.572Z,99734.66
2023-11-01T19:50:26.765Z,99743.50
2023-11-01T19:52:55.055Z,99739.19
2023-11-01T19:55:22.905Z,99737.72
2023-11-01T19:57:50.743Z,99740.00
2023-11-01T20:00:18.593Z,99733.66
2023-11-01T20:02:46.647Z,99734.34
2023-11-01T20:05:14.471Z,99732.53
2023-11-01T20:07:42.079Z,99729.03
2023-11-01T20:10:13.104Z,99721.38
2023-11-01T20:12:40.911Z,99733.19
2023-11-01T20:15:10.616Z,99728.00
2023-11-01T20:17:38.415Z,99726.16
2023-11-01T20:20:09.008Z,99715.91
2023-11-01T20:22:41.731Z,99721.75
2023-11-01T20:25:13.243Z,99720.25
2023-11-01T20:27:43.448Z,99716.56
2023-11-01T20:30:11.348Z,99711.41
2023-11-01T20:32:39.022Z,99704.03
2023-11-01T20:35:06.861Z,99693.41
2023-11-01T20:37:35.151Z,99690.75
2023-11-01T20:40:02.849Z,99683.94
2023-11-01T20:42:31.656Z,99688.78
2023-11-01T20:44:59.509Z,99679.25
2023-11-01T20:47:27.152Z,99678.78
2023-11-01T20:49:54.927Z,99679.28
2023-11-01T20:52:22.571Z,99678.44
2023-11-01T20:54:56.443Z,99685.41
2023-11-01T20:57:25.905Z,99677.59
2023-11-01T20:59:53.581Z,99670.13
2023-11-01T21:02:21.369Z,99674.66
2023-11-01T21:04:49.047Z,99667.50
2023-11-01T21:07:16.733Z,99667.16
2023-11-01T21:09:46.338Z,99662.34
2023-11-01T21:12:14.036Z,99655.34
2023-11-01T21:14:41.947Z,99656.84
2023-11-01T21:17:10.050Z,99657.38
2023-11-01T21:19:38.641Z,99649.69
2023-11-01T21:22:06.466Z,99639.03
2023-11-01T21:24:34.123Z,99645.38
2023-11-01T21:27:01.858Z,99639.53
2023-11-01T21:29:30.150Z,99648.34
2023-11-01T21:31:57.927Z,99643.53
2023-11-01T21:34:25.701Z,99637.38
2023-11-01T21:36:54.835Z,99637.03
2023-11-01T21:39:22.616Z,99635.69
2023-11-01T21:41:50.497Z,99635.03
2023-11-01T21:44:31.527Z,99641.19
2023-11-01T21:47:04.920Z,99638.00
2023-11-01T21:49:36.184Z,99638.34
2023-11-01T21:52:10.593Z,99637.84
2023-11-01T21:54:39.182Z,99642.19
2023-11-01T21:57:08.744Z,99638.69
2023-11-01T21:59:37.437Z,99644.16
2023-11-01T22:02:07.933Z,99642.84
2023-11-01T22:04:38.629Z,99643.34
2023-11-01T22:07:09.582Z,99631.38
2023-11-01T22:09:37.446Z,99632.38
2023-11-01T22:12:07.318Z,99633.91
2023-11-01T22:14:39.268Z,99630.22
2023-11-01T22:17:11.903Z,99626.22
2023-11-01T22:19:42.861Z,99627.38
2023-11-01T22:22:34.934Z,99627.19
2023-11-01T22:25:02.644Z,99631.16
2023-11-01T22:27:45.141Z,99632.50
2023-11-01T22:30:14.726Z,99627.84
2023-11-01T22:32:42.344Z,99622.19
2023-11-01T22:35:11.793Z,99622.22
2023-11-01T22:37:39.371Z,99621.88
2023-11-01T22:40:08.324Z,99624.69
2023-11-01T22:42:35.948Z,99613.56
2023-11-01T22:45:04.108Z,99606.41
2023-11-01T22:47:31.997Z,99611.41
2023-11-01T22:49:59.725Z,99606.38
2023-11-01T22:52:27.798Z,99605.84
2023-11-01T22:54:55.450Z,99606.19
2023-11-01T22:57:23.090Z,99596.41
2023-11-01T22:59:51.817Z,99591.91
2023-11-01T23:02:19.457Z,99585.75
2023-11-01T23:04:47.040Z,99591.25
2023-11-01T23:07:15.805Z,99591.56
2023-11-01T23:09:43.491Z,99599.72
2023-11-01T23:12:12.714Z,99596.06
2023-11-01T23:14:40.408Z,99592.88
2023-11-01T23:17:09.445Z,99581.91
2023-11-01T23:19:37.157Z,99580.59
2023-11-01T23:22:05.249Z,99571.78
2023-11-01T23:24:32.983Z,99572.59
2023-11-01T23:27:05.966Z,99564.91
2023-11-01T23:29:35.842Z,99572.91
2023-11-01T23:32:17.047Z,99566.97
2023-11-01T23:34:51.419Z,99568.44
2023-11-01T23:37:29.192Z,99568.44
2023-11-01T23:39:57.498Z,99566.22
2023-11-01T23:42:30.041Z,99555.75
2023-11-01T23:44:59.048Z,99553.72
2023-11-01T23:47:50.143Z,99558.25
2023-11-01T23:50:35.863Z,99558.06
2023-11-01T23:53:05.687Z,99546.44
2023-11-01T23:55:34.486Z,99545.41
2023-11-01T23:58:02.326Z,99550.03
